createdAt,value
2023-02-11T00:02:11.600Z,-2.29
2023-02-11T00:07:13.696Z,-2.47
2023-02-11T00:12:15.599Z,-2.40
2023-02-11T00:17:17.709Z,-2.37
2023-02-11T00:22:19.880Z,-2.41
2023-02-11T00:27:21.732Z,-2.57
2023-02-11T00:32:23.690Z,-2.71
2023-02-11T00:37:25.576Z,-2.78
2023-02-11T00:42:27.526Z,-2.87
2023-02-11T00:47:29.615Z,-2.94
2023-02-11T00:52:32.223Z,-3.01
2023-02-11T00:57:33.873Z,-3.11
2023-02-11T01:02:35.790Z,-3.14
2023-02-11T01:07:37.752Z,-3.20
2023-02-11T01:12:39.971Z,-3.23
2023-02-11T01:17:42.014Z,-3.23
2023-02-11T01:22:43.933Z,-3.29
2023-02-11T01:27:45.886Z,-3.36
2023-02-11T01:32:47.793Z,-3.40
2023-02-11T01:37:49.811Z,-3.41
2023-02-11T01:42:51.712Z,-3.40
2023-02-11T01:47:53.655Z,-3.46
2023-02-11T01:52:55.547Z,-3.44
2023-02-11T01:58:00.969Z,-3.38
2023-02-11T02:03:11.488Z,-3.21
2023-02-11T02:08:27.237Z,-3.06
2023-02-11T02:13:30.389Z,-2.92
2023-02-11T02:19:10.490Z,-2.88
2023-02-11T02:24:24.372Z,-2.78
2023-02-11T02:29:43.921Z,-2.72
2023-02-11T02:35:04.400Z,-2.72
2023-02-11T02:40:11.438Z,-2.71
2023-02-11T02:45:14.347Z,-2.68
2023-02-11T02:50:17.439Z,-2.70
2023-02-11T02:55:34.365Z,-2.68
2023-02-11T03:01:03.949Z,-2.67
2023-02-11T03:06:34.375Z,-2.70
2023-02-11T03:11:36.318Z,-2.86
2023-02-11T03:16:38.239Z,-2.90
2023-02-11T03:21:40.847Z,-3.00
2023-02-11T03:27:08.594Z,-3.11
2023-02-11T03:32:14.485Z,-3.25
2023-02-11T03:37:24.740Z,-3.28
2023-02-11T03:42:28.194Z,-3.27
2023-02-11T03:47:30.127Z,-3.33
2023-02-11T03:52:32.125Z,-3.35
2023-02-11T03:57:34.048Z,-3.38
2023-02-11T04:02:36.641Z,-3.53
2023-02-11T04:07:38.376Z,-3.71
2023-02-11T04:12:40.422Z,-3.77
2023-02-11T04:17:42.688Z,-3.84
2023-02-11T04:22:44.624Z,-3.88
2023-02-11T04:27:46.459Z,-3.99
2023-02-11T04:32:48.449Z,-4.06
2023-02-11T04:37:50.249Z,-4.10
2023-02-11T04:42:52.141Z,-4.13
2023-02-11T04:47:54.170Z,-4.21
2023-02-11T04:52:56.099Z,-4.19
2023-02-11T04:57:58.076Z,-4.16
2023-02-11T05:03:00.658Z,-4.18
2023-02-11T05:08:02.394Z,-4.27
2023-02-11T05:13:04.822Z,-4.29
2023-02-11T05:18:06.663Z,-4.25
2023-02-11T05:23:08.533Z,-4.13
2023-02-11T05:28:10.495Z,-3.96
2023-02-11T05:33:13.850Z,-3.82
2023-02-11T05:38:15.704Z,-3.72
2023-02-11T05:43:17.758Z,-3.62
2023-02-11T05:48:19.799Z,-3.51
2023-02-11T05:53:21.770Z,-3.44
2023-02-11T05:58:23.682Z,-3.35
2023-02-11T06:03:25.623Z,-3.20
2023-02-11T06:08:27.675Z,-3.28
2023-02-11T06:13:29.740Z,-3.30
2023-02-11T06:18:31.629Z,-3.16
2023-02-11T06:23:33.514Z,-3.21
2023-02-11T06:28:35.531Z,-3.28
2023-02-11T06:33:37.715Z,-3.13
2023-02-11T06:38:39.696Z,-3.06
2023-02-11T06:43:41.672Z,-2.98
2023-02-11T06:48:44.932Z,-3.04
2023-02-11T06:53:47.144Z,-2.76
2023-02-11T06:58:51.865Z,-2.50
2023-02-11T07:03:53.882Z,-2.40
2023-02-11T07:08:55.987Z,-2.43
2023-02-11T07:14:01.497Z,-2.54
2023-02-11T07:19:03.492Z,-2.32
2023-02-11T07:24:11.060Z,-2.39
2023-02-11T07:29:13.449Z,-2.20
2023-02-11T07:34:15.417Z,-2.07
2023-02-11T07:40:06.517Z,-2.16
2023-02-11T07:45:08.764Z,-2.10
2023-02-11T07:50:10.787Z,-2.16
2023-02-11T07:55:12.752Z,-2.20
2023-02-11T08:00:15.331Z,-2.12
2023-02-11T08:05:17.312Z,-2.14
2023-02-11T08:10:19.408Z,-2.01
2023-02-11T08:15:21.418Z,-2.11
2023-02-11T08:20:23.281Z,-2.17
2023-02-11T08:25:25.228Z,-2.08
2023-02-11T08:30:27.643Z,-1.96
2023-02-11T08:35:29.679Z,-1.78
2023-02-11T08:40:31.550Z,-1.85
2023-02-11T08:45:33.522Z,-1.92
2023-02-11T08:50:35.510Z,-2.13
2023-02-11T08:55:37.504Z,-2.30
2023-02-11T09:00:39.446Z,-2.38
2023-02-11T09:05:47.745Z,-2.23
2023-02-11T09:10:49.906Z,-2.08
2023-02-11T09:15:52.028Z,-1.99
2023-02-11T09:20:54.133Z,-2.09
2023-02-11T09:25:56.115Z,-2.17
2023-02-11T09:30:58.005Z,-2.34
2023-02-11T09:36:04.112Z,-2.19
2023-02-11T09:41:05.968Z,-2.22
2023-02-11T09:46:09.391Z,-2.09
2023-02-11T09:51:20.867Z,-2.02
2023-02-11T09:56:23.792Z,-2.14
2023-02-11T10:01:39.109Z,-2.19
2023-02-11T10:06:49.410Z,-2.10
2023-02-11T10:12:15.475Z,-2.22
2023-02-11T10:17:35.268Z,-2.28
2023-02-11T10:22:40.663Z,-2.35
2023-02-11T10:27:42.563Z,-2.46
2023-02-11T10:32:59.394Z,-2.27
2023-02-11T10:38:01.302Z,-2.28
2023-02-11T10:43:04.979Z,-2.24
2023-02-11T10:48:27.353Z,-2.01
2023-02-11T10:53:29.248Z,-1.91
2023-02-11T10:58:34.639Z,-1.71
2023-02-11T11:03:45.815Z,-1.75
2023-02-11T11:08:49.222Z,-1.72
2023-02-11T11:13:54.072Z,-1.71
2023-02-11T11:19:08.162Z,-1.71
2023-02-11T11:24:18.932Z,-1.78
2023-02-11T11:29:24.804Z,-1.74
2023-02-11T11:34:38.855Z,-1.79
2023-02-11T11:39:40.859Z,-1.76
2023-02-11T11:44:42.794Z,-1.79
2023-02-11T11:50:06.426Z,-2.00
2023-02-11T11:55:18.516Z,-1.96
2023-02-11T12:00:22.657Z,-2.07
2023-02-11T12:05:24.415Z,-1.93
2023-02-11T12:10:38.271Z,-1.84
2023-02-11T12:15:55.528Z,-1.86
2023-02-11T12:21:00.335Z,-2.00
2023-02-11T12:26:24.765Z,-2.02
2023-02-11T12:31:45.741Z,-2.26
2023-02-11T12:37:07.927Z,-2.09
2023-02-11T12:42:40.561Z,-2.02
2023-02-11T12:48:19.138Z,-2.18
2023-02-11T12:54:01.117Z,-2.21
2023-02-11T12:59:03.087Z,-2.24
2023-02-11T13:04:08.867Z,-2.26
2023-02-11T13:09:17.364Z,-2.32
2023-02-11T13:14:34.908Z,-2.45
2023-02-11T13:19:44.659Z,-2.41
2023-02-11T13:25:11.138Z,-2.35
2023-02-11T13:30:28.931Z,-2.39
2023-02-11T13:35:37.855Z,-2.44
2023-02-11T13:40:39.853Z,-2.59
2023-02-11T13:45:44.185Z,-2.63
2023-02-11T13:50:50.406Z,-2.70
2023-02-11T13:55:54.774Z,-2.69
2023-02-11T14:00:56.924Z,-2.78
2023-02-11T14:06:19.200Z,-2.86
2023-02-11T14:11:24.104Z,-2.84
2023-02-11T14:16:37.525Z,-2.81
2023-02-11T14:21:40.337Z,-2.78
2023-02-11T14:27:04.310Z,-2.81
2023-02-11T14:32:38.488Z,-2.93
2023-02-11T14:37:50.817Z,-2.93
2023-02-11T14:42:54.518Z,-2.94
2023-02-11T14:48:14.181Z,-2.97
2023-02-11T14:53:23.164Z,-2.98
2023-02-11T14:58:27.042Z,-3.02
2023-02-11T15:03:42.690Z,-2.94
2023-02-11T15:08:49.427Z,-2.99
2023-02-11T15:13:53.079Z,-3.00
2023-02-11T15:18:58.559Z,-3.06
2023-02-11T15:24:05.674Z,-3.05
2023-02-11T15:29:16.704Z,-2.93
2023-02-11T15:34:18.583Z,-2.94
2023-02-11T15:39:41.296Z,-2.97
2023-02-11T15:44:43.162Z,-2.89
2023-02-11T15:49:45.724Z,-2.84
2023-02-11T15:54:47.706Z,-2.82
2023-02-11T15:59:51.271Z,-2.76
2023-02-11T16:05:01.699Z,-2.81
2023-02-11T16:10:14.320Z,-2.81
2023-02-11T16:15:35.339Z,-2.63
2023-02-11T16:20:37.234Z,-2.62
2023-02-11T16:25:39.186Z,-2.72
2023-02-11T16:30:41.296Z,-2.66
2023-02-11T16:35:43.134Z,-2.65
2023-02-11T16:40:45.160Z,-2.64
2023-02-11T16:45:46.994Z,-2.70
2023-02-11T16:50:52.874Z,-2.67
2023-02-11T16:55:55.193Z,-2.61
2023-02-11T17:00:57.101Z,-2.56
2023-02-11T17:05:59.664Z,-2.58
2023-02-11T17:11:02.513Z,-2.50
2023-02-11T17:16:04.256Z,-2.49
2023-02-11T17:21:07.394Z,-2.45
2023-02-11T17:26:09.352Z,-2.43
2023-02-11T17:31:11.539Z,-2.42
2023-02-11T17:36:13.456Z,-2.42
2023-02-11T17:41:15.452Z,-2.39
2023-02-11T17:46:17.501Z,-2.37
2023-02-11T17:51:29.643Z,-2.43
2023-02-11T17:56:35.481Z,-2.41
2023-02-11T18:01:37.826Z,-2.35
2023-02-11T18:06:39.816Z,-2.38
2023-02-11T18:11:41.950Z,-2.37
2023-02-11T18:16:44.012Z,-2.33
2023-02-11T18:21:45.944Z,-2.29
2023-02-11T18:26:48.019Z,-2.29
2023-02-11T18:31:50.026Z,-2.31
2023-02-11T18:36:52.128Z,-2.22
2023-02-11T18:41:57.196Z,-2.21
2023-02-11T18:46:59.781Z,-2.21
2023-02-11T18:52:01.829Z,-2.22
2023-02-11T18:57:03.963Z,-2.26
2023-02-11T19:02:05.839Z,-2.22
2023-02-11T19:07:07.813Z,-2.16
2023-02-11T19:12:09.782Z,-2.21
2023-02-11T19:17:11.880Z,-2.09
2023-02-11T19:22:13.801Z,-2.11
2023-02-11T19:27:15.739Z,-2.14
2023-02-11T19:32:17.726Z,-2.12
2023-02-11T19:37:19.723Z,-2.05
2023-02-11T19:42:21.754Z,-1.99
2023-02-11T19:47:23.580Z,-1.99
2023-02-11T19:52:25.773Z,-1.98
2023-02-11T19:57:27.670Z,-2.01
2023-02-11T20:02:29.594Z,-2.03
2023-02-11T20:07:31.619Z,-1.99
2023-02-11T20:12:33.608Z,-1.99
2023-02-11T20:17:35.611Z,-1.97
2023-02-11T20:22:37.556Z,-1.94
2023-02-11T20:27:39.572Z,-1.87
2023-02-11T20:32:41.613Z,-1.86
2023-02-11T20:37:44.241Z,-1.87
2023-02-11T20:42:45.969Z,-1.86
2023-02-11T20:47:47.828Z,-1.74
2023-02-11T20:52:49.728Z,-1.76
2023-02-11T20:57:51.569Z,-1.67
2023-02-11T21:02:53.566Z,-1.64
2023-02-11T21:07:55.413Z,-1.64
2023-02-11T21:12:57.413Z,-1.63
2023-02-11T21:17:59.326Z,-1.67
2023-02-11T21:23:01.304Z,-1.70
2023-02-11T21:28:03.502Z,-1.58
2023-02-11T21:33:05.772Z,-1.56
2023-02-11T21:38:07.709Z,-1.62
2023-02-11T21:43:09.586Z,-1.60
2023-02-11T21:48:11.674Z,-1.63
2023-02-11T21:53:13.781Z,-1.59
2023-02-11T21:58:15.682Z,-1.50
2023-02-11T22:03:17.607Z,-1.56
2023-02-11T22:08:20.308Z,-1.55
2023-02-11T22:13:22.077Z,-1.54
2023-02-11T22:18:23.938Z,-1.53
2023-02-11T22:23:25.732Z,-1.49
2023-02-11T22:28:27.811Z,-1.38
2023-02-11T22:33:29.842Z,-1.40
2023-02-11T22:38:32.191Z,-1.40
2023-02-11T22:43:34.144Z,-1.39
2023-02-11T22:48:36.114Z,-1.40
2023-02-11T22:53:38.013Z,-1.34
2023-02-11T22:58:39.983Z,-1.31
2023-02-11T23:03:41.892Z,-1.20
2023-02-11T23:08:44.034Z,-1.16
2023-02-11T23:13:46.476Z,-1.11
2023-02-11T23:18:48.920Z,-1.08
2023-02-11T23:23:57.418Z,-1.01
2023-02-11T23:28:59.562Z,-0.99
2023-02-11T23:34:01.438Z,-1.00
2023-02-11T23:39:03.821Z,-1.13
2023-02-11T23:44:05.778Z,-1.18
2023-02-11T23:49:07.636Z,-1.28
2023-02-11T23:54:12.746Z,-1.51
2023-02-11T23:59:14.648Z,-1.70
